sensor_id;sensor_type;location;lat;lon;timestamp;pressure;altitude;pressure_sealevel;temperature;humidity
45129;BME280;35512;56.312;101.728;2023-02-12T00:01:43;98334.63;;;-15.31;79.12
45129;BME280;35512;56.312;101.728;2023-02-12T00:04:12;98348.28;;;-15.20;79.23
45129;BME280;35512;56.312;101.728;2023-02-12T00:06:42;98339.09;;;-15.15;79.13
45129;BME280;35512;56.312;101.728;2023-02-12T00:09:11;98337.81;;;-15.10;78.95
45129;BME280;35512;56.312;101.728;2023-02-12T00:11:40;98338.50;;;-15.08;78.95
45129;BME280;35512;56.312;101.728;2023-02-12T00:14:09;98348.56;;;-15.05;78.71
45129;BME280;35512;56.312;101.728;2023-02-12T00:16:38;98343.91;;;-15.02;78.73
45129;BME280;35512;56.312;101.728;2023-02-12T00:19:08;98344.22;;;-15.05;78.49
45129;BME280;35512;56.312;101.728;2023-02-12T00:21:37;98353.75;;;-15.05;78.93
45129;BME280;35512;56.312;101.728;2023-02-12T00:24:06;98371.88;;;-15.05;78.50
45129;BME280;35512;56.312;101.728;2023-02-12T00:26:35;98362.63;;;-15.08;78.54
45129;BME280;35512;56.312;101.728;2023-02-12T00:29:04;98356.50;;;-15.07;78.47
45129;BME280;35512;56.312;101.728;2023-02-12T00:31:33;98364.25;;;-15.07;78.72
45129;BME280;35512;56.312;101.728;2023-02-12T00:34:02;98366.13;;;-14.99;78.49
45129;BME280;35512;56.312;101.728;2023-02-12T00:36:31;98365.00;;;-14.97;78.66
45129;BME280;35512;56.312;101.728;2023-02-12T00:39:00;98370.41;;;-14.90;78.91
45129;BME280;35512;56.312;101.728;2023-02-12T00:41:29;98371.03;;;-14.88;78.73
45129;BME280;35512;56.312;101.728;2023-02-12T00:43:58;98369.88;;;-14.93;78.66
45129;BME280;35512;56.312;101.728;2023-02-12T00:46:27;98382.91;;;-14.85;78.79
45129;BME280;35512;56.312;101.728;2023-02-12T00:48:56;98386.44;;;-14.86;78.52
45129;BME280;35512;56.312;101.728;2023-02-12T00:51:25;98368.75;;;-14.91;78.58
45129;BME280;35512;56.312;101.728;2023-02-12T00:53:54;98382.75;;;-14.84;78.49
45129;BME280;35512;56.312;101.728;2023-02-12T00:56:23;98381.63;;;-14.81;78.78
45129;BME280;35512;56.312;101.728;2023-02-12T00:58:52;98387.13;;;-14.84;78.46
45129;BME280;35512;56.312;101.728;2023-02-12T01:01:21;98385.59;;;-14.95;78.59
45129;BME280;35512;56.312;101.728;2023-02-12T01:03:50;98400.19;;;-14.94;78.58
45129;BME280;35512;56.312;101.728;2023-02-12T01:06:20;98394.47;;;-14.98;78.56
45129;BME280;35512;56.312;101.728;2023-02-12T01:08:50;98400.53;;;-14.89;78.46
45129;BME280;35512;56.312;101.728;2023-02-12T01:11:20;98395.56;;;-14.82;78.43
45129;BME280;35512;56.312;101.728;2023-02-12T01:13:49;98394.28;;;-14.78;78.81
45129;BME280;35512;56.312;101.728;2023-02-12T01:16:21;98393.69;;;-14.72;78.59
45129;BME280;35512;56.312;101.728;2023-02-12T01:18:51;98396.13;;;-14.70;78.34
45129;BME280;35512;56.312;101.728;2023-02-12T01:21:26;98407.97;;;-14.68;78.55
45129;BME280;35512;56.312;101.728;2023-02-12T01:23:56;98400.06;;;-14.58;78.57
45129;BME280;35512;56.312;101.728;2023-02-12T01:26:27;98399.16;;;-14.49;78.36
45129;BME280;35512;56.312;101.728;2023-02-12T01:28:58;98392.00;;;-14.47;78.59
45129;BME280;35512;56.312;101.728;2023-02-12T01:31:31;98403.94;;;-14.28;78.61
45129;BME280;35512;56.312;101.728;2023-02-12T01:34:02;98399.16;;;-14.14;78.82
45129;BME280;35512;56.312;101.728;2023-02-12T01:36:34;98418.53;;;-14.00;78.59
45129;BME280;35512;56.312;101.728;2023-02-12T01:39:05;98422.94;;;-13.92;78.37
45129;BME280;35512;56.312;101.728;2023-02-12T01:41:40;98422.34;;;-13.78;78.93
45129;BME280;35512;56.312;101.728;2023-02-12T01:46:43;98424.84;;;-13.60;78.39
45129;BME280;35512;56.312;101.728;2023-02-12T01:49:35;98428.44;;;-13.53;78.79
45129;BME280;35512;56.312;101.728;2023-02-12T01:52:16;98423.75;;;-13.49;78.52
45129;BME280;35512;56.312;101.728;2023-02-12T01:54:48;98428.09;;;-13.50;78.36
45129;BME280;35512;56.312;101.728;2023-02-12T01:57:26;98435.09;;;-13.50;78.52
45129;BME280;35512;56.312;101.728;2023-02-12T01:59:57;98438.50;;;-13.41;78.34
45129;BME280;35512;56.312;101.728;2023-02-12T02:02:31;98439.34;;;-13.41;78.26
45129;BME280;35512;56.312;101.728;2023-02-12T02:05:02;98435.63;;;-13.22;78.61
45129;BME280;35512;56.312;101.728;2023-02-12T02:07:32;98407.34;;;-13.09;78.67
45129;BME280;35512;56.312;101.728;2023-02-12T02:10:01;98433.34;;;-12.67;78.77
45129;BME280;35512;56.312;101.728;2023-02-12T02:12:30;98433.50;;;-12.44;78.59
45129;BME280;35512;56.312;101.728;2023-02-12T02:15:18;98430.97;;;-11.73;78.96
45129;BME280;35512;56.312;101.728;2023-02-12T02:18:15;98437.00;;;-10.72;79.46
45129;BME280;35512;56.312;101.728;2023-02-12T02:27:18;98443.94;;;-9.81;78.27
45129;BME280;35512;56.312;101.728;2023-02-12T02:35:36;98443.34;;;-9.10;78.14
45129;BME280;35512;56.312;101.728;2023-02-12T02:38:19;98440.88;;;-7.83;78.80
45129;BME280;35512;56.312;101.728;2023-02-12T02:43:34;98430.97;;;-5.72;77.65
45129;BME280;35512;56.312;101.728;2023-02-12T02:46:17;98449.22;;;-5.77;75.39
45129;BME280;35512;56.312;101.728;2023-02-12T02:48:54;98443.69;;;-6.61;73.97
45129;BME280;35512;56.312;101.728;2023-02-12T02:51:33;98451.25;;;-7.20;75.70
45129;BME280;35512;56.312;101.728;2023-02-12T02:54:10;98440.84;;;-6.66;77.28
45129;BME280;35512;56.312;101.728;2023-02-12T02:56:45;98445.97;;;-5.72;77.67
45129;BME280;35512;56.312;101.728;2023-02-12T02:59:25;98435.31;;;-5.39;76.66
45129;BME280;35512;56.312;101.728;2023-02-12T03:02:03;98442.97;;;-5.31;75.79
45129;BME280;35512;56.312;101.728;2023-02-12T03:04:40;98444.13;;;-5.58;75.61
45129;BME280;35512;56.312;101.728;2023-02-12T03:12:43;98444.81;;;-4.35;77.15
45129;BME280;35512;56.312;101.728;2023-02-12T03:17:49;98445.56;;;-4.28;74.28
45129;BME280;35512;56.312;101.728;2023-02-12T03:20:36;98444.94;;;-3.12;76.14
45129;BME280;35512;56.312;101.728;2023-02-12T03:23:34;98453.34;;;-1.19;75.21
45129;BME280;35512;56.312;101.728;2023-02-12T03:26:13;98465.25;;;-0.47;73.44
45129;BME280;35512;56.312;101.728;2023-02-12T03:28:46;98453.75;;;-0.19;72.28
45129;BME280;35512;56.312;101.728;2023-02-12T03:37:02;98453.38;;;1.77;71.78
45129;BME280;35512;56.312;101.728;2023-02-12T03:43:21;98442.56;;;2.42;71.61
45129;BME280;35512;56.312;101.728;2023-02-12T03:49:10;98438.47;;;2.82;69.12
45129;BME280;35512;56.312;101.728;2023-02-12T03:51:44;98443.16;;;2.54;69.39
45129;BME280;35512;56.312;101.728;2023-02-12T03:54:15;98440.41;;;2.34;69.06
45129;BME280;35512;56.312;101.728;2023-02-12T03:56:56;98442.06;;;2.02;69.38
45129;BME280;35512;56.312;101.728;2023-02-12T03:59:28;98433.56;;;2.06;70.10
45129;BME280;35512;56.312;101.728;2023-02-12T04:01:58;98426.00;;;2.35;70.41
45129;BME280;35512;56.312;101.728;2023-02-12T04:04:28;98437.34;;;2.68;70.38
45129;BME280;35512;56.312;101.728;2023-02-12T04:06:58;98438.22;;;2.94;69.46
45129;BME280;35512;56.312;101.728;2023-02-12T04:09:28;98446.84;;;3.27;69.64
45129;BME280;35512;56.312;101.728;2023-02-12T04:12:26;98449.56;;;3.63;70.36
45129;BME280;35512;56.312;101.728;2023-02-12T04:26:36;98427.63;;;6.02;68.00
45129;BME280;35512;56.312;101.728;2023-02-12T04:29:18;98446.81;;;5.51;67.65
45129;BME280;35512;56.312;101.728;2023-02-12T04:31:56;98447.91;;;5.45;68.47
45129;BME280;35512;56.312;101.728;2023-02-12T04:34:51;98441.91;;;5.63;68.59
45129;BME280;35512;56.312;101.728;2023-02-12T04:37:32;98453.22;;;6.19;68.98
45129;BME280;35512;56.312;101.728;2023-02-12T04:40:11;98442.72;;;7.33;67.99
45129;BME280;35512;56.312;101.728;2023-02-12T04:42:43;98441.59;;;7.39;67.25
45129;BME280;35512;56.312;101.728;2023-02-12T04:45:15;98445.53;;;7.80;67.52
45129;BME280;35512;56.312;101.728;2023-02-12T04:47:46;98454.28;;;7.53;66.22
45129;BME280;35512;56.312;101.728;2023-02-12T04:50:15;98455.66;;;5.86;67.02
45129;BME280;35512;56.312;101.728;2023-02-12T04:52:44;98454.91;;;5.80;69.93
45129;BME280;35512;56.312;101.728;2023-02-12T04:55:14;98454.41;;;6.61;69.37
45129;BME280;35512;56.312;101.728;2023-02-12T04:57:43;98453.19;;;7.35;67.96
45129;BME280;35512;56.312;101.728;2023-02-12T05:00:13;98454.59;;;7.84;65.97
45129;BME280;35512;56.312;101.728;2023-02-12T05:02:43;98455.09;;;7.86;66.70
45129;BME280;35512;56.312;101.728;2023-02-12T05:05:12;98442.16;;;7.88;65.23
45129;BME280;35512;56.312;101.728;2023-02-12T05:07:41;98454.84;;;7.31;65.85
45129;BME280;35512;56.312;101.728;2023-02-12T05:10:10;98447.31;;;7.14;65.84
45129;BME280;35512;56.312;101.728;2023-02-12T05:12:39;98447.97;;;7.24;65.58
45129;BME280;35512;56.312;101.728;2023-02-12T05:15:08;98450.72;;;7.19;66.55
45129;BME280;35512;56.312;101.728;2023-02-12T05:17:37;98447.00;;;7.53;65.85
45129;BME280;35512;56.312;101.728;2023-02-12T05:20:06;98442.41;;;7.73;66.01
45129;BME280;35512;56.312;101.728;2023-02-12T05:22:36;98441.56;;;7.91;65.98
45129;BME280;35512;56.312;101.728;2023-02-12T05:25:05;98446.72;;;8.21;65.38
45129;BME280;35512;56.312;101.728;2023-02-12T05:27:34;98438.03;;;8.10;65.44
45129;BME280;35512;56.312;101.728;2023-02-12T05:30:04;98433.19;;;7.93;64.76
45129;BME280;35512;56.312;101.728;2023-02-12T05:32:33;98441.66;;;7.86;65.30
45129;BME280;35512;56.312;101.728;2023-02-12T05:35:02;98447.13;;;8.14;65.58
45129;BME280;35512;56.312;101.728;2023-02-12T05:37:34;98445.00;;;8.11;64.81
45129;BME280;35512;56.312;101.728;2023-02-12T05:40:05;98429.91;;;7.96;63.27
45129;BME280;35512;56.312;101.728;2023-02-12T05:42:34;98429.47;;;7.75;64.59
45129;BME280;35512;56.312;101.728;2023-02-12T05:45:03;98421.31;;;7.80;64.05
45129;BME280;35512;56.312;101.728;2023-02-12T05:47:32;98438.81;;;7.64;63.54
45129;BME280;35512;56.312;101.728;2023-02-12T05:50:01;98427.41;;;7.53;63.61
45129;BME280;35512;56.312;101.728;2023-02-12T05:52:30;98434.09;;;7.36;63.78
45129;BME280;35512;56.312;101.728;2023-02-12T05:54:59;98424.94;;;7.18;63.75
45129;BME280;35512;56.312;101.728;2023-02-12T05:57:29;98432.22;;;7.18;63.72
45129;BME280;35512;56.312;101.728;2023-02-12T05:59:58;98412.81;;;7.02;63.77
45129;BME280;35512;56.312;101.728;2023-02-12T06:02:28;98426.91;;;7.32;62.62
45129;BME280;35512;56.312;101.728;2023-02-12T06:04:57;98432.44;;;7.21;63.44
45129;BME280;35512;56.312;101.728;2023-02-12T06:07:26;98435.53;;;7.48;63.44
45129;BME280;35512;56.312;101.728;2023-02-12T06:09:55;98426.25;;;7.73;63.47
45129;BME280;35512;56.312;101.728;2023-02-12T06:12:24;98434.22;;;7.97;63.44
45129;BME280;35512;56.312;101.728;2023-02-12T06:14:53;98428.13;;;7.91;63.36
45129;BME280;35512;56.312;101.728;2023-02-12T06:17:21;98437.59;;;8.03;63.89
45129;BME280;35512;56.312;101.728;2023-02-12T06:19:50;98427.59;;;8.22;63.36
45129;BME280;35512;56.312;101.728;2023-02-12T06:22:19;98424.91;;;8.22;62.08
45129;BME280;35512;56.312;101.728;2023-02-12T06:24:48;98424.59;;;8.24;62.24
45129;BME280;35512;56.312;101.728;2023-02-12T06:27:17;98419.97;;;7.97;62.09
45129;BME280;35512;56.312;101.728;2023-02-12T06:29:46;98404.56;;;7.69;61.26
45129;BME280;35512;56.312;101.728;2023-02-12T06:32:15;98421.22;;;7.85;62.25
45129;BME280;35512;56.312;101.728;2023-02-12T06:34:44;98411.66;;;7.79;61.84
45129;BME280;35512;56.312;101.728;2023-02-12T06:37:13;98421.13;;;7.90;61.58
45129;BME280;35512;56.312;101.728;2023-02-12T06:39:41;98417.75;;;7.85;62.63
45129;BME280;35512;56.312;101.728;2023-02-12T06:42:10;98415.44;;;8.39;62.52
45129;BME280;35512;56.312;101.728;2023-02-12T06:44:39;98419.72;;;8.40;62.43
45129;BME280;35512;56.312;101.728;2023-02-12T06:47:08;98424.84;;;8.08;60.71
45129;BME280;35512;56.312;101.728;2023-02-12T06:49:37;98402.59;;;7.89;61.88
45129;BME280;35512;56.312;101.728;2023-02-12T06:52:06;98421.59;;;8.11;61.83
45129;BME280;35512;56.312;101.728;2023-02-12T06:54:34;98421.59;;;8.25;61.17
45129;BME280;35512;56.312;101.728;2023-02-12T06:57:04;98417.19;;;8.02;60.90
45129;BME280;35512;56.312;101.728;2023-02-12T06:59:32;98412.91;;;8.01;61.28
45129;BME280;35512;56.312;101.728;2023-02-12T07:02:02;98424.38;;;7.73;60.77
45129;BME280;35512;56.312;101.728;2023-02-12T07:04:31;98426.22;;;7.59;61.04
45129;BME280;35512;56.312;101.728;2023-02-12T07:07:00;98420.91;;;7.54;60.81
45129;BME280;35512;56.312;101.728;2023-02-12T07:09:30;98432.03;;;7.47;60.42
45129;BME280;35512;56.312;101.728;2023-02-12T07:11:58;98444.19;;;7.06;61.23
45129;BME280;35512;56.312;101.728;2023-02-12T07:14:27;98426.53;;;6.57;61.36
45129;BME280;35512;56.312;101.728;2023-02-12T07:16:56;98422.94;;;6.67;63.05
45129;BME280;35512;56.312;101.728;2023-02-12T07:19:25;98424.94;;;6.99;63.11
45129;BME280;35512;56.312;101.728;2023-02-12T07:21:54;98427.41;;;6.52;61.68
45129;BME280;35512;56.312;101.728;2023-02-12T07:24:23;98422.44;;;5.47;62.12
45129;BME280;35512;56.312;101.728;2023-02-12T07:26:52;98409.22;;;3.91;63.53
45129;BME280;35512;56.312;101.728;2023-02-12T07:29:21;98429.13;;;2.22;65.45
45129;BME280;35512;56.312;101.728;2023-02-12T07:31:50;98412.66;;;0.23;67.81
45129;BME280;35512;56.312;101.728;2023-02-12T07:34:19;98426.13;;;-1.14;70.15
45129;BME280;35512;56.312;101.728;2023-02-12T07:36:48;98427.88;;;-2.32;71.46
45129;BME280;35512;56.312;101.728;2023-02-12T07:39:17;98435.75;;;-3.10;72.58
45129;BME280;35512;56.312;101.728;2023-02-12T07:41:46;98435.00;;;-3.66;73.86
45129;BME280;35512;56.312;101.728;2023-02-12T07:44:15;98435.06;;;-4.10;74.20
45129;BME280;35512;56.312;101.728;2023-02-12T07:46:48;98430.19;;;-4.56;74.56
45129;BME280;35512;56.312;101.728;2023-02-12T07:49:19;98438.31;;;-4.90;74.83
45129;BME280;35512;56.312;101.728;2023-02-12T07:51:49;98436.47;;;-5.21;74.83
45129;BME280;35512;56.312;101.728;2023-02-12T07:54:18;98436.16;;;-5.45;75.11
45129;BME280;35512;56.312;101.728;2023-02-12T07:56:47;98431.19;;;-5.73;75.05
45129;BME280;35512;56.312;101.728;2023-02-12T07:59:18;98433.06;;;-5.87;75.38
45129;BME280;35512;56.312;101.728;2023-02-12T08:01:49;98432.28;;;-6.01;75.46
45129;BME280;35512;56.312;101.728;2023-02-12T08:04:23;98432.16;;;-6.33;75.64
45129;BME280;35512;56.312;101.728;2023-02-12T08:06:54;98428.72;;;-6.27;75.91
45129;BME280;35512;56.312;101.728;2023-02-12T08:09:26;98439.84;;;-4.50;77.23
45129;BME280;35512;56.312;101.728;2023-02-12T08:11:55;98428.25;;;-2.16;75.89
45129;BME280;35512;56.312;101.728;2023-02-12T08:14:26;98438.69;;;-0.13;72.31
45129;BME280;35512;56.312;101.728;2023-02-12T08:16:55;98424.72;;;1.30;70.24
45129;BME280;35512;56.312;101.728;2023-02-12T08:19:24;98428.59;;;2.25;68.02
45129;BME280;35512;56.312;101.728;2023-02-12T08:21:55;98429.94;;;2.80;67.28
45129;BME280;35512;56.312;101.728;2023-02-12T08:24:24;98424.66;;;3.01;66.19
45129;BME280;35512;56.312;101.728;2023-02-12T08:26:53;98436.44;;;3.15;66.13
45129;BME280;35512;56.312;101.728;2023-02-12T08:29:26;98430.06;;;3.37;66.06
45129;BME280;35512;56.312;101.728;2023-02-12T08:31:57;98442.88;;;3.50;65.75
45129;BME280;35512;56.312;101.728;2023-02-12T08:34:32;98447.16;;;3.77;66.17
45129;BME280;35512;56.312;101.728;2023-02-12T08:37:04;98443.97;;;3.70;65.20
45129;BME280;35512;56.312;101.728;2023-02-12T08:39:33;98451.44;;;3.37;65.00
45129;BME280;35512;56.312;101.728;2023-02-12T08:42:02;98446.31;;;3.10;65.25
45129;BME280;35512;56.312;101.728;2023-02-12T08:44:31;98434.03;;;2.45;65.09
45129;BME280;35512;56.312;101.728;2023-02-12T08:47:00;98428.13;;;2.28;66.05
45129;BME280;35512;56.312;101.728;2023-02-12T08:49:29;98437.69;;;2.29;66.11
45129;BME280;35512;56.312;101.728;2023-02-12T08:51:59;98443.47;;;2.15;66.51
45129;BME280;35512;56.312;101.728;2023-02-12T08:54:30;98432.84;;;2.20;66.91
45129;BME280;35512;56.312;101.728;2023-02-12T08:57:01;98431.25;;;2.19;66.85
45129;BME280;35512;56.312;101.728;2023-02-12T08:59:30;98433.78;;;1.94;66.40
45129;BME280;35512;56.312;101.728;2023-02-12T09:01:59;98434.59;;;1.62;66.77
45129;BME280;35512;56.312;101.728;2023-02-12T09:04:31;98415.41;;;1.00;67.23
45129;BME280;35512;56.312;101.728;2023-02-12T09:07:00;98439.50;;;0.66;67.63
45129;BME280;35512;56.312;101.728;2023-02-12T09:09:29;98438.97;;;0.25;67.85
45129;BME280;35512;56.312;101.728;2023-02-12T09:11:57;98443.75;;;-0.45;67.28
45129;BME280;35512;56.312;101.728;2023-02-12T09:14:26;98427.28;;;-0.93;67.65
45129;BME280;35512;56.312;101.728;2023-02-12T09:16:55;98441.41;;;-1.33;67.24
45129;BME280;35512;56.312;101.728;2023-02-12T09:19:25;98431.72;;;-2.04;67.70
45129;BME280;35512;56.312;101.728;2023-02-12T09:21:54;98426.81;;;-2.66;67.65
45129;BME280;35512;56.312;101.728;2023-02-12T09:24:24;98436.66;;;-3.16;68.56
45129;BME280;35512;56.312;101.728;2023-02-12T09:26:55;98429.94;;;-3.86;69.39
45129;BME280;35512;56.312;101.728;2023-02-12T09:29:24;98420.31;;;-4.68;72.35
45129;BME280;35512;56.312;101.728;2023-02-12T09:31:53;98434.34;;;-5.45;73.67
45129;BME280;35512;56.312;101.728;2023-02-12T09:34:22;98435.13;;;-6.09;73.61
45129;BME280;35512;56.312;101.728;2023-02-12T09:36:51;98435.59;;;-6.59;73.76
45129;BME280;35512;56.312;101.728;2023-02-12T09:39:20;98440.78;;;-6.93;73.98
45129;BME280;35512;56.312;101.728;2023-02-12T09:42:02;98440.72;;;-7.26;74.42
45129;BME280;35512;56.312;101.728;2023-02-12T09:44:57;98446.03;;;-7.61;74.11
45129;BME280;35512;56.312;101.728;2023-02-12T09:47:38;98442.44;;;-7.95;74.15
45129;BME280;35512;56.312;101.728;2023-02-12T09:53:04;98448.09;;;-8.55;74.31
45129;BME280;35512;56.312;101.728;2023-02-12T09:55:34;98445.47;;;-8.77;74.41
45129;BME280;35512;56.312;101.728;2023-02-12T09:58:19;98453.78;;;-8.95;74.35
45129;BME280;35512;56.312;101.728;2023-02-12T10:00:50;98448.91;;;-9.20;74.70
45129;BME280;35512;56.312;101.728;2023-02-12T10:03:21;98455.44;;;-9.30;74.51
45129;BME280;35512;56.312;101.728;2023-02-12T10:06:01;98464.09;;;-9.45;74.72
45129;BME280;35512;56.312;101.728;2023-02-12T10:12:05;98463.50;;;-9.77;75.08
45129;BME280;35512;56.312;101.728;2023-02-12T10:17:36;98468.19;;;-10.02;74.86
45129;BME280;35512;56.312;101.728;2023-02-12T10:25:47;98481.16;;;-10.39;74.44
45129;BME280;35512;56.312;101.728;2023-02-12T10:28:39;98473.09;;;-10.52;74.75
45129;BME280;35512;56.312;101.728;2023-02-12T10:31:30;98479.03;;;-10.58;75.24
45129;BME280;35512;56.312;101.728;2023-02-12T10:34:52;98478.47;;;-10.68;75.08
45129;BME280;35512;56.312;101.728;2023-02-12T10:37:10;98485.53;;;-10.77;75.02
45129;BME280;35512;56.312;101.728;2023-02-12T10:39:47;98490.00;;;-10.86;75.32
45129;BME280;35512;56.312;101.728;2023-02-12T10:42:37;98495.47;;;-10.96;75.48
45129;BME280;35512;56.312;101.728;2023-02-12T10:45:18;98491.72;;;-11.01;75.34
45129;BME280;35512;56.312;101.728;2023-02-12T10:47:51;98508.38;;;-11.02;75.43
45129;BME280;35512;56.312;101.728;2023-02-12T10:50:38;98501.06;;;-11.07;75.32
45129;BME280;35512;56.312;101.728;2023-02-12T10:58:50;98502.94;;;-11.24;75.69
45129;BME280;35512;56.312;101.728;2023-02-12T11:01:24;98504.91;;;-11.26;75.44
45129;BME280;35512;56.312;101.728;2023-02-12T11:03:56;98503.78;;;-11.32;75.32
45129;BME280;35512;56.312;101.728;2023-02-12T11:06:30;98516.22;;;-11.34;75.68
45129;BME280;35512;56.312;101.728;2023-02-12T11:08:59;98516.88;;;-11.40;75.21
45129;BME280;35512;56.312;101.728;2023-02-12T11:11:30;98516.28;;;-11.50;75.30
45129;BME280;35512;56.312;101.728;2023-02-12T11:14:08;98517.75;;;-11.56;75.43
45129;BME280;35512;56.312;101.728;2023-02-12T11:16:53;98525.56;;;-11.56;75.39
45129;BME280;35512;56.312;101.728;2023-02-12T11:19:29;98523.13;;;-11.58;75.44
45129;BME280;35512;56.312;101.728;2023-02-12T11:22:14;98524.44;;;-11.62;75.31
45129;BME280;35512;56.312;101.728;2023-02-12T11:24:49;98520.72;;;-11.67;75.11
45129;BME280;35512;56.312;101.728;2023-02-12T11:27:29;98522.19;;;-11.73;75.14
45129;BME280;35512;56.312;101.728;2023-02-12T11:30:18;98527.59;;;-11.75;75.11
45129;BME280;35512;56.312;101.728;2023-02-12T11:32:48;98534.75;;;-11.77;75.10
45129;BME280;35512;56.312;101.728;2023-02-12T11:35:20;98535.88;;;-11.79;74.84
45129;BME280;35512;56.312;101.728;2023-02-12T11:37:58;98547.16;;;-11.87;75.24
45129;BME280;35512;56.312;101.728;2023-02-12T11:40:31;98542.44;;;-11.92;74.94
45129;BME280;35512;56.312;101.728;2023-02-12T11:43:04;98537.94;;;-11.98;75.07
45129;BME280;35512;56.312;101.728;2023-02-12T11:45:55;98542.97;;;-11.96;75.59
45129;BME280;35512;56.312;101.728;2023-02-12T11:48:37;98537.44;;;-12.01;75.10
45129;BME280;35512;56.312;101.728;2023-02-12T11:51:08;98544.63;;;-12.03;75.05
45129;BME280;35512;56.312;101.728;2023-02-12T11:53:49;98546.06;;;-12.09;75.24
45129;BME280;35512;56.312;101.728;2023-02-12T11:56:19;98544.78;;;-12.13;75.15
45129;BME280;35512;56.312;101.728;2023-02-12T11:58:50;98543.63;;;-12.19;74.77
45129;BME280;35512;56.312;101.728;2023-02-12T12:01:25;98544.63;;;-12.20;75.03
45129;BME280;35512;56.312;101.728;2023-02-12T12:04:09;98541.72;;;-12.25;74.47
45129;BME280;35512;56.312;101.728;2023-02-12T12:06:46;98550.81;;;-12.29;74.85
45129;BME280;35512;56.312;101.728;2023-02-12T12:09:23;98555.06;;;-12.28;74.71
45129;BME280;35512;56.312;101.728;2023-02-12T12:15:05;98556.03;;;-12.37;74.35
45129;BME280;35512;56.312;101.728;2023-02-12T12:18:25;98555.88;;;-12.44;74.31
45129;BME280;35512;56.312;101.728;2023-02-12T12:21:44;98565.13;;;-12.50;74.68
45129;BME280;35512;56.312;101.728;2023-02-12T12:24:22;98560.41;;;-12.54;74.52
45129;BME280;35512;56.312;101.728;2023-02-12T12:27:14;98566.25;;;-12.61;74.63
45129;BME280;35512;56.312;101.728;2023-02-12T12:30:18;98573.56;;;-12.64;74.81
45129;BME280;35512;56.312;101.728;2023-02-12T12:32:51;98574.38;;;-12.64;74.83
45129;BME280;35512;56.312;101.728;2023-02-12T12:35:35;98571.63;;;-12.62;74.88
45129;BME280;35512;56.312;101.728;2023-02-12T12:41:26;98585.44;;;-12.62;74.73
45129;BME280;35512;56.312;101.728;2023-02-12T12:55:00;98584.78;;;-12.64;74.16
45129;BME280;35512;56.312;101.728;2023-02-12T12:57:42;98580.72;;;-12.75;74.54
45129;BME280;35512;56.312;101.728;2023-02-12T13:00:34;98561.00;;;-12.94;74.30
45129;BME280;35512;56.312;101.728;2023-02-12T13:10:56;98592.50;;;-12.97;74.71
45129;BME280;35512;56.312;101.728;2023-02-12T13:13:49;98579.16;;;-13.02;75.07
45129;BME280;35512;56.312;101.728;2023-02-12T13:16:32;98580.31;;;-13.04;74.85
45129;BME280;35512;56.312;101.728;2023-02-12T13:27:05;98583.25;;;-12.99;75.19
45129;BME280;35512;56.312;101.728;2023-02-12T13:29:39;98584.72;;;-12.97;75.36
45129;BME280;35512;56.312;101.728;2023-02-12T13:32:43;98580.00;;;-13.01;75.24
45129;BME280;35512;56.312;101.728;2023-02-12T13:35:22;98584.03;;;-13.15;74.90
45129;BME280;35512;56.312;101.728;2023-02-12T13:37:54;98578.44;;;-13.29;74.78
45129;BME280;35512;56.312;101.728;2023-02-12T13:40:27;98576.44;;;-13.35;75.04
45129;BME280;35512;56.312;101.728;2023-02-12T13:46:03;98570.47;;;-13.35;75.25
45129;BME280;35512;56.312;101.728;2023-02-12T13:48:54;98572.88;;;-13.34;75.40
45129;BME280;35512;56.312;101.728;2023-02-12T13:51:52;98562.50;;;-13.26;75.31
45129;BME280;35512;56.312;101.728;2023-02-12T13:57:23;98560.63;;;-13.07;75.04
45129;BME280;35512;56.312;101.728;2023-02-12T13:59:54;98552.69;;;-13.05;75.06
45129;BME280;35512;56.312;101.728;2023-02-12T14:07:55;98559.03;;;-13.00;74.68
45129;BME280;35512;56.312;101.728;2023-02-12T14:15:55;98544.00;;;-13.14;74.58
45129;BME280;35512;56.312;101.728;2023-02-12T14:18:35;98548.75;;;-13.10;74.49
45129;BME280;35512;56.312;101.728;2023-02-12T14:23:43;98531.84;;;-13.14;74.45
45129;BME280;35512;56.312;101.728;2023-02-12T14:26:22;98557.91;;;-12.97;74.21
45129;BME280;35512;56.312;101.728;2023-02-12T14:29:01;98557.91;;;-12.97;74.29
45129;BME280;35512;56.312;101.728;2023-02-12T14:31:36;98556.25;;;-12.98;74.49
45129;BME280;35512;56.312;101.728;2023-02-12T14:36:43;98556.75;;;-13.03;74.37
45129;BME280;35512;56.312;101.728;2023-02-12T14:42:40;98542.41;;;-13.15;74.39
45129;BME280;35512;56.312;101.728;2023-02-12T14:50:18;98546.81;;;-13.07;74.14
45129;BME280;35512;56.312;101.728;2023-02-12T14:52:54;98549.25;;;-13.06;74.40
45129;BME280;35512;56.312;101.728;2023-02-12T14:55:31;98534.31;;;-13.04;74.29
45129;BME280;35512;56.312;101.728;2023-02-12T14:58:05;98540.31;;;-13.03;74.17
45129;BME280;35512;56.312;101.728;2023-02-12T15:00:44;98532.84;;;-13.06;74.08
45129;BME280;35512;56.312;101.728;2023-02-12T15:03:22;98533.50;;;-13.04;74.22
45129;BME280;35512;56.312;101.728;2023-02-12T15:06:23;98530.41;;;-13.08;73.91
45129;BME280;35512;56.312;101.728;2023-02-12T15:09:08;98531.53;;;-13.11;73.79
45129;BME280;35512;56.312;101.728;2023-02-12T15:11:56;98524.22;;;-13.15;73.98
45129;BME280;35512;56.312;101.728;2023-02-12T15:14:30;98532.31;;;-13.10;74.03
45129;BME280;35512;56.312;101.728;2023-02-12T15:17:30;98526.16;;;-13.09;73.69
45129;BME280;35512;56.312;101.728;2023-02-12T15:20:25;98531.69;;;-13.12;74.05
45129;BME280;35512;56.312;101.728;2023-02-12T15:22:59;98526.13;;;-13.17;73.58
45129;BME280;35512;56.312;101.728;2023-02-12T15:25:31;98533.78;;;-13.16;74.01
45129;BME280;35512;56.312;101.728;2023-02-12T15:28:05;98536.69;;;-13.19;73.61